createdAt,value
2018-07-02T00:00:12.874Z,13.8333333333
2018-07-02T00:00:25.699Z,13.8888888889
2018-07-02T00:00:38.512Z,13.8333333333
2018-07-02T00:00:51.242Z,13.8333333333
2018-07-02T00:01:04.061Z,13.8888888889
2018-07-02T00:01:19.642Z,13.8888888889
2018-07-02T00:01:32.531Z,13.8333333333
2018-07-02T00:01:45.257Z,13.8333333333
2018-07-02T00:01:58.016Z,13.8888888889
2018-07-02T00:02:10.738Z,13.8333333333
2018-07-02T00:02:25.637Z,13.8888888889
2018-07-02T00:02:39.836Z,13.8888888889
2018-07-02T00:02:52.602Z,13.8888888889
2018-07-02T00:03:05.374Z,13.8888888889
2018-07-02T00:03:18.135Z,13.8888888889
2018-07-02T00:03:30.874Z,13.8888888889
2018-07-02T00:03:43.601Z,13.8888888889
2018-07-02T00:03:58.724Z,13.8888888889
2018-07-02T00:04:11.582Z,13.8888888889
2018-07-02T00:04:24.341Z,13.8888888889
2018-07-02T00:04:37.103Z,13.8888888889
2018-07-02T00:04:49.840Z,13.8888888889
2018-07-02T00:05:03.175Z,13.8888888889
2018-07-02T00:05:19.357Z,13.8888888889
2018-07-02T00:05:32.111Z,13.8888888889
2018-07-02T00:05:44.830Z,13.8888888889
2018-07-02T00:05:57.566Z,13.8888888889
2018-07-02T00:06:10.317Z,13.8888888889
2018-07-02T00:06:23.395Z,13.8888888889
2018-07-02T00:06:38.203Z,13.8888888889
2018-07-02T00:06:52.003Z,13.8888888889
2018-07-02T00:07:05.153Z,13.8888888889
2018-07-02T00:07:17.864Z,13.8888888889
2018-07-02T00:07:30.729Z,13.8888888889
2018-07-02T00:07:45.782Z,13.8888888889
2018-07-02T00:07:59.740Z,13.8888888889
2018-07-02T00:08:12.493Z,13.8888888889
2018-07-02T00:08:25.466Z,13.8333333333
2018-07-02T00:08:38.134Z,13.8888888889
2018-07-02T00:08:50.897Z,13.8888888889
2018-07-02T00:09:05.062Z,13.8888888889
2018-07-02T00:09:19.382Z,13.8888888889
2018-07-02T00:09:32.109Z,13.8888888889
2018-07-02T00:09:44.883Z,13.8888888889
2018-07-02T00:09:57.645Z,13.8888888889
2018-07-02T00:10:10.500Z,13.8333333333
2018-07-02T00:10:26.861Z,13.8888888889
2018-07-02T00:10:39.547Z,13.8888888889
2018-07-02T00:10:52.323Z,13.8333333333
2018-07-02T00:11:05.121Z,13.8888888889
2018-07-02T00:11:17.812Z,13.8888888889
2018-07-02T00:11:30.484Z,13.8888888889
2018-07-02T00:11:46.131Z,13.8333333333
2018-07-02T00:11:58.877Z,13.8888888889
2018-07-02T00:12:11.640Z,13.8888888889
2018-07-02T00:12:24.438Z,13.8888888889
2018-07-02T00:12:37.239Z,13.8888888889
2018-07-02T00:12:50.630Z,13.8333333333
2018-07-02T00:13:05.686Z,13.8333333333
2018-07-02T00:13:18.403Z,13.8333333333
2018-07-02T00:13:31.249Z,13.8888888889
2018-07-02T00:13:43.926Z,13.8333333333
2018-07-02T00:13:56.603Z,13.8333333333
2018-07-02T00:14:09.290Z,13.8333333333
2018-07-02T00:14:25.556Z,13.8333333333
2018-07-02T00:14:38.266Z,13.8333333333
2018-07-02T00:14:51.012Z,13.8333333333
2018-07-02T00:15:03.805Z,13.8333333333
2018-07-02T00:15:16.611Z,13.8333333333
2018-07-02T00:15:29.814Z,13.7777777778
2018-07-02T00:15:45.050Z,13.7777777778
2018-07-02T00:15:57.831Z,13.8333333333
2018-07-02T00:16:10.540Z,13.7777777778
2018-07-02T00:16:23.276Z,13.8333333333
2018-07-02T00:16:36.040Z,13.7777777778
2018-07-02T00:16:49.926Z,13.7777777778
2018-07-02T00:17:04.697Z,13.7777777778
2018-07-02T00:17:17.455Z,13.7777777778
2018-07-02T00:17:30.314Z,13.7777777778
2018-07-02T00:17:43.086Z,13.7777777778
2018-07-02T00:17:55.809Z,13.7777777778
2018-07-02T00:18:10.301Z,13.7777777778
2018-07-02T00:18:24.039Z,13.7777777778
2018-07-02T00:18:36.828Z,13.7777777778
2018-07-02T00:18:49.458Z,13.7222222222
2018-07-02T00:19:02.199Z,13.7777777778
2018-07-02T00:19:14.958Z,13.7777777778
2018-07-02T00:19:29.745Z,13.7222222222
2018-07-02T00:19:43.987Z,13.7222222222
2018-07-02T00:19:57.003Z,13.7222222222
2018-07-02T00:20:09.937Z,13.7222222222
2018-07-02T00:20:22.700Z,13.7222222222
2018-07-02T00:20:35.437Z,13.7222222222
2018-07-02T00:20:49.801Z,13.7222222222
2018-07-02T00:21:03.597Z,13.7222222222
2018-07-02T00:21:16.399Z,13.7222222222
2018-07-02T00:21:29.127Z,13.7222222222
2018-07-02T00:21:41.909Z,13.7222222222
2018-07-02T00:21:54.630Z,13.7222222222
2018-07-02T00:22:09.380Z,13.7222222222
2018-07-02T00:22:23.617Z,13.7222222222
2018-07-02T00:22:36.348Z,13.7222222222
2018-07-02T00:22:49.074Z,13.6666666667
2018-07-02T00:23:01.790Z,13.7222222222
2018-07-02T00:23:14.886Z,13.6666666667
2018-07-02T00:23:30.806Z,13.6666666667
2018-07-02T00:23:43.605Z,13.6666666667
2018-07-02T00:23:56.288Z,13.6666666667
2018-07-02T00:24:09.028Z,13.6666666667
2018-07-02T00:24:21.768Z,13.6666666667
2018-07-02T00:24:34.538Z,13.6666666667
2018-07-02T00:24:50.822Z,13.7222222222
2018-07-02T00:25:03.608Z,13.6666666667
2018-07-02T00:25:16.318Z,13.6666666667
2018-07-02T00:25:29.051Z,13.6666666667
2018-07-02T00:25:41.886Z,13.6666666667
2018-07-02T00:25:55.769Z,13.6666666667
2018-07-02T00:26:11.426Z,13.6666666667
2018-07-02T00:26:24.195Z,13.6666666667
2018-07-02T00:26:36.925Z,13.6666666667
2018-07-02T00:26:49.674Z,13.6666666667
2018-07-02T00:27:02.425Z,13.6111111111
2018-07-02T00:27:15.142Z,13.6666666667
2018-07-02T00:27:31.337Z,13.6666666667
2018-07-02T00:27:44.517Z,13.6111111111
2018-07-02T00:27:57.251Z,13.6666666667
2018-07-02T00:28:10.180Z,13.6111111111
2018-07-02T00:28:22.959Z,13.6111111111
2018-07-02T00:28:35.674Z,13.6111111111
2018-07-02T00:28:51.155Z,13.6111111111
2018-07-02T00:29:03.815Z,13.6111111111
2018-07-02T00:29:16.469Z,13.6111111111
2018-07-02T00:29:29.235Z,13.6111111111
2018-07-02T00:29:41.917Z,13.6111111111
2018-07-02T00:29:54.606Z,13.6111111111
2018-07-02T00:30:11.071Z,13.6111111111
2018-07-02T00:30:23.830Z,13.6111111111
2018-07-02T00:30:36.613Z,13.6111111111
2018-07-02T00:30:49.416Z,13.6111111111
2018-07-02T00:31:02.134Z,13.6111111111
2018-07-02T00:31:14.831Z,13.6111111111
2018-07-02T00:31:30.546Z,13.6111111111
2018-07-02T00:31:43.570Z,13.6111111111
2018-07-02T00:31:57.169Z,13.5555555556
2018-07-02T00:32:09.970Z,13.5555555556
2018-07-02T00:32:22.710Z,13.5555555556
2018-07-02T00:32:35.494Z,13.5555555556
2018-07-02T00:32:50.885Z,13.5555555556
2018-07-02T00:33:04.114Z,13.5555555556
2018-07-02T00:33:16.964Z,13.5555555556
2018-07-02T00:33:29.757Z,13.5555555556
2018-07-02T00:33:42.497Z,13.5555555556
2018-07-02T00:33:55.201Z,13.5555555556
2018-07-02T00:34:09.748Z,13.5555555556
2018-07-02T00:34:23.383Z,13.5555555556
2018-07-02T00:34:36.145Z,13.5
2018-07-02T00:34:48.915Z,13.5
2018-07-02T00:35:01.633Z,13.5555555556
2018-07-02T00:35:14.402Z,13.5555555556
2018-07-02T00:35:30.320Z,13.5
2018-07-02T00:35:43.069Z,13.5
2018-07-02T00:35:55.880Z,13.5555555556
2018-07-02T00:36:08.591Z,13.5
2018-07-02T00:36:21.390Z,13.5
2018-07-02T00:36:35.132Z,13.5
2018-07-02T00:36:49.987Z,13.5
2018-07-02T00:37:02.781Z,13.5
2018-07-02T00:37:15.555Z,13.5
2018-07-02T00:37:28.305Z,13.5
2018-07-02T00:37:41.077Z,13.5
2018-07-02T00:37:53.834Z,13.5
2018-07-02T00:38:06.606Z,13.5
2018-07-02T00:38:20.621Z,13.5
2018-07-02T00:38:34.762Z,13.5
2018-07-02T00:38:49.965Z,13.5
2018-07-02T00:39:02.745Z,13.5
2018-07-02T00:39:15.521Z,13.5
2018-07-02T00:39:28.343Z,13.5
2018-07-02T00:39:41.180Z,13.5
2018-07-02T00:39:53.940Z,13.4444444444
2018-07-02T00:40:06.971Z,13.4444444444
2018-07-02T00:40:19.694Z,13.4444444444
2018-07-02T00:40:36.325Z,13.4444444444
2018-07-02T00:40:49.088Z,13.4444444444
2018-07-02T00:41:02.397Z,13.4444444444
2018-07-02T00:41:15.033Z,13.4444444444
2018-07-02T00:41:28.722Z,13.4444444444
2018-07-02T00:41:44.622Z,13.4444444444
2018-07-02T00:41:57.363Z,13.4444444444
2018-07-02T00:42:10.100Z,13.4444444444
2018-07-02T00:42:22.888Z,13.3888888889
2018-07-02T00:42:36.180Z,13.3888888889
2018-07-02T00:42:51.231Z,13.3888888889
2018-07-02T00:43:04.314Z,13.3888888889
2018-07-02T00:43:18.915Z,13.3888888889
2018-07-02T00:43:31.723Z,13.3888888889
2018-07-02T00:43:44.478Z,13.3888888889
2018-07-02T00:43:57.957Z,13.3888888889
2018-07-02T00:44:10.783Z,13.3888888889
2018-07-02T00:44:23.918Z,13.3333333333
2018-07-02T00:44:36.727Z,13.3333333333
2018-07-02T00:44:49.302Z,13.3888888889
2018-07-02T00:45:04.392Z,13.3888888889
2018-07-02T00:45:18.008Z,13.3333333333
2018-07-02T00:45:31.174Z,13.3333333333
2018-07-02T00:45:43.916Z,13.3333333333
2018-07-02T00:45:56.824Z,13.3333333333
2018-07-02T00:46:09.596Z,13.3888888889
2018-07-02T00:46:22.317Z,13.3333333333
2018-07-02T00:46:35.166Z,13.3333333333
2018-07-02T00:46:47.780Z,13.3333333333
2018-07-02T00:47:01.903Z,13.3333333333
2018-07-02T00:47:20.102Z,13.3333333333
2018-07-02T00:47:33.594Z,13.3333333333
2018-07-02T00:47:46.826Z,13.3333333333
2018-07-02T00:47:59.503Z,13.3333333333
2018-07-02T00:48:12.254Z,13.3333333333
2018-07-02T00:48:24.974Z,13.3333333333
2018-07-02T00:48:38.031Z,13.3333333333
2018-07-02T00:48:51.595Z,13.2777777778
2018-07-02T00:49:07.004Z,13.2777777778
2018-07-02T00:49:21.987Z,13.3333333333
2018-07-02T00:49:34.792Z,13.2777777778
2018-07-02T00:49:47.561Z,13.3333333333
2018-07-02T00:50:00.350Z,13.2777777778
2018-07-02T00:50:13.110Z,13.2777777778
2018-07-02T00:50:25.969Z,13.2777777778
2018-07-02T00:50:43.211Z,13.2777777778
2018-07-02T00:50:55.976Z,13.2777777778
2018-07-02T00:51:08.680Z,13.2777777778
2018-07-02T00:51:21.690Z,13.2777777778
2018-07-02T00:51:34.404Z,13.2222222222
2018-07-02T00:51:47.105Z,13.2777777778
2018-07-02T00:52:03.666Z,13.2222222222
2018-07-02T00:52:17.145Z,13.2222222222
2018-07-02T00:52:29.860Z,13.2222222222
2018-07-02T00:52:42.631Z,13.2222222222
2018-07-02T00:52:55.308Z,13.2222222222
2018-07-02T00:53:08.055Z,13.2222222222
2018-07-02T00:53:25.487Z,13.2222222222
2018-07-02T00:53:38.335Z,13.1666666667
2018-07-02T00:53:51.042Z,13.2222222222
2018-07-02T00:54:03.756Z,13.1666666667
2018-07-02T00:54:16.524Z,13.1666666667
2018-07-02T00:54:29.249Z,13.2222222222
2018-07-02T00:54:44.945Z,13.1666666667
2018-07-02T00:54:59.860Z,13.1666666667
2018-07-02T00:55:12.620Z,13.1666666667
2018-07-02T00:55:25.540Z,13.1666666667
2018-07-02T00:55:38.269Z,13.2222222222
2018-07-02T00:55:51.068Z,13.1666666667
2018-07-02T00:56:05.659Z,13.1666666667
2018-07-02T00:56:21.031Z,13.1666666667
2018-07-02T00:56:33.706Z,13.1666666667
2018-07-02T00:56:46.376Z,13.1666666667
2018-07-02T00:56:59.215Z,13.1666666667
2018-07-02T00:57:12.003Z,13.1666666667
2018-07-02T00:57:25.758Z,13.1666666667
2018-07-02T00:57:42.516Z,13.1111111111
2018-07-02T00:57:55.238Z,13.1111111111
2018-07-02T00:58:08.039Z,13.1111111111
2018-07-02T00:58:20.769Z,13.1111111111
2018-07-02T00:58:33.483Z,13.1111111111
2018-07-02T00:58:46.125Z,13.1111111111
2018-07-02T00:59:03.263Z,13.1111111111
2018-07-02T00:59:15.982Z,13.1111111111
2018-07-02T00:59:28.718Z,13.1111111111
2018-07-02T00:59:41.506Z,13.0555555556
2018-07-02T00:59:54.172Z,13.1111111111
2018-07-02T01:00:06.837Z,13.1111111111
2018-07-02T01:00:21.898Z,13.1111111111
2018-07-02T01:00:37.057Z,13.1111111111
2018-07-02T01:00:49.776Z,13.1111111111
2018-07-02T01:01:02.490Z,13.1111111111
2018-07-02T01:01:15.345Z,13.0555555556
2018-07-02T01:01:28.338Z,13.1111111111
2018-07-02T01:01:42.093Z,13.0555555556
2018-07-02T01:01:58.411Z,13.0555555556
2018-07-02T01:02:11.207Z,13.0555555556
2018-07-02T01:02:23.941Z,13.0555555556
2018-07-02T01:02:36.646Z,13.0555555556
2018-07-02T01:02:49.329Z,13.0555555556
2018-07-02T01:03:02.083Z,13.0555555556
2018-07-02T01:03:18.748Z,13.0555555556
2018-07-02T01:03:31.827Z,13.0555555556
2018-07-02T01:03:44.571Z,13
2018-07-02T01:03:57.355Z,13
2018-07-02T01:04:10.241Z,13
2018-07-02T01:04:23.025Z,13
2018-07-02T01:04:37.746Z,13
2018-07-02T01:04:52.622Z,13
2018-07-02T01:05:05.466Z,13
2018-07-02T01:05:18.221Z,13
2018-07-02T01:05:30.952Z,13
2018-07-02T01:05:43.701Z,13
2018-07-02T01:05:57.354Z,12.9444444444
2018-07-02T01:06:13.454Z,13
2018-07-02T01:06:26.241Z,13
2018-07-02T01:06:39.012Z,13
2018-07-02T01:06:51.777Z,13
2018-07-02T01:07:04.701Z,13
2018-07-02T01:07:17.344Z,13
2018-07-02T01:07:34.328Z,13
2018-07-02T01:07:47.162Z,12.9444444444
2018-07-02T01:07:59.916Z,13
2018-07-02T01:08:12.653Z,13
2018-07-02T01:08:25.522Z,12.9444444444
2018-07-02T01:08:38.246Z,13
2018-07-02T01:08:52.454Z,13
2018-07-02T01:09:07.641Z,12.9444444444
2018-07-02T01:09:20.331Z,12.9444444444
2018-07-02T01:09:33.071Z,12.9444444444
2018-07-02T01:09:45.867Z,12.9444444444
2018-07-02T01:09:58.614Z,12.9444444444
2018-07-02T01:10:12.977Z,12.9444444444
2018-07-02T01:10:29.139Z,12.9444444444
2018-07-02T01:10:41.877Z,12.9444444444
2018-07-02T01:10:54.677Z,12.9444444444
2018-07-02T01:11:07.396Z,12.9444444444
2018-07-02T01:11:20.040Z,12.9444444444
2018-07-02T01:11:32.714Z,12.9444444444
2018-07-02T01:11:49.864Z,12.8888888889
2018-07-02T01:12:03.252Z,12.8888888889
2018-07-02T01:12:16.040Z,12.8888888889
2018-07-02T01:12:28.764Z,12.8888888889
2018-07-02T01:12:41.508Z,12.8888888889
2018-07-02T01:12:54.198Z,12.8888888889
2018-07-02T01:13:09.189Z,12.8888888889
2018-07-02T01:13:24.461Z,12.8888888889
2018-07-02T01:13:37.228Z,12.8888888889
2018-07-02T01:13:50.029Z,12.8888888889
2018-07-02T01:14:02.807Z,12.8888888889
2018-07-02T01:14:15.541Z,12.8888888889
2018-07-02T01:14:28.250Z,12.8888888889
2018-07-02T01:14:45.363Z,12.8888888889
2018-07-02T01:14:59.053Z,12.8888888889
2018-07-02T01:15:11.806Z,12.8888888889
2018-07-02T01:15:24.581Z,12.8333333333
2018-07-02T01:15:37.334Z,12.8333333333
2018-07-02T01:15:50.091Z,12.8888888889
2018-07-02T01:16:04.752Z,12.8888888889
2018-07-02T01:16:20.694Z,12.8333333333
2018-07-02T01:16:33.473Z,12.8333333333
2018-07-02T01:16:46.278Z,12.8333333333
2018-07-02T01:16:59.050Z,12.8888888889
2018-07-02T01:17:11.767Z,12.8333333333
2018-07-02T01:17:24.691Z,12.8333333333
2018-07-02T01:17:42.611Z,12.8888888889
2018-07-02T01:17:55.397Z,12.8888888889
2018-07-02T01:18:08.169Z,12.8333333333
2018-07-02T01:18:20.960Z,12.8333333333
2018-07-02T01:18:33.621Z,12.8333333333
2018-07-02T01:18:46.329Z,12.8333333333
2018-07-02T01:19:01.251Z,12.8333333333
2018-07-02T01:19:17.358Z,12.8333333333
2018-07-02T01:19:30.077Z,12.8333333333
2018-07-02T01:19:42.850Z,12.8333333333
2018-07-02T01:19:55.579Z,12.8333333333
2018-07-02T01:20:08.323Z,12.8333333333
2018-07-02T01:20:22.007Z,12.8333333333
2018-07-02T01:20:38.042Z,12.8333333333
2018-07-02T01:20:51.897Z,12.8333333333
2018-07-02T01:21:04.612Z,12.8333333333
2018-07-02T01:21:17.418Z,12.8333333333
2018-07-02T01:21:30.138Z,12.8333333333
2018-07-02T01:21:42.947Z,12.8333333333
2018-07-02T01:21:58.106Z,12.8333333333
2018-07-02T01:22:13.834Z,12.8333333333
2018-07-02T01:22:26.600Z,12.8333333333
2018-07-02T01:22:39.322Z,12.8333333333
2018-07-02T01:22:52.072Z,12.8333333333
2018-07-02T01:23:04.771Z,12.8333333333
2018-07-02T01:23:19.653Z,12.8333333333
2018-07-02T01:23:34.368Z,12.8333333333
2018-07-02T01:23:47.711Z,12.8333333333
2018-07-02T01:24:00.492Z,12.8333333333
2018-07-02T01:24:13.223Z,12.8333333333
2018-07-02T01:24:25.976Z,12.8333333333
2018-07-02T01:24:38.801Z,12.8333333333
2018-07-02T01:24:53.275Z,12.8333333333
2018-07-02T01:25:08.840Z,12.8333333333
2018-07-02T01:25:21.573Z,12.8333333333
2018-07-02T01:25:34.346Z,12.8333333333
2018-07-02T01:25:47.128Z,12.8333333333
2018-07-02T01:25:59.884Z,12.8333333333
2018-07-02T01:26:12.509Z,12.8333333333
2018-07-02T01:26:29.227Z,12.8333333333
2018-07-02T01:26:43.167Z,12.8333333333
2018-07-02T01:26:55.892Z,12.8333333333
2018-07-02T01:27:08.656Z,12.8333333333
2018-07-02T01:27:21.404Z,12.8333333333
2018-07-02T01:27:34.133Z,12.8333333333
2018-07-02T01:27:49.661Z,12.8333333333
2018-07-02T01:28:04.681Z,12.8333333333
2018-07-02T01:28:17.517Z,12.8333333333
2018-07-02T01:28:30.330Z,12.8333333333
2018-07-02T01:28:43.079Z,12.8333333333
2018-07-02T01:28:55.805Z,12.8333333333
2018-07-02T01:29:08.519Z,12.8333333333
2018-07-02T01:29:24.449Z,12.8333333333
2018-07-02T01:29:39.702Z,12.8333333333
2018-07-02T01:29:52.426Z,12.7777777778
2018-07-02T01:30:05.117Z,12.8333333333
2018-07-02T01:30:17.887Z,12.8333333333
2018-07-02T01:30:30.551Z,12.8333333333
2018-07-02T01:30:43.289Z,12.8333333333
2018-07-02T01:30:59.361Z,12.7777777778
2018-07-02T01:31:15.296Z,12.7777777778
2018-07-02T01:31:28.030Z,12.7777777778
2018-07-02T01:31:40.795Z,12.8333333333
2018-07-02T01:31:53.554Z,12.8333333333
2018-07-02T01:32:06.321Z,12.7777777778
2018-07-02T01:32:18.988Z,12.7777777778
2018-07-02T01:32:35.920Z,12.7777777778
2018-07-02T01:32:51.181Z,12.7777777778
2018-07-02T01:33:03.917Z,12.7777777778
2018-07-02T01:33:16.777Z,12.7777777778
2018-07-02T01:33:29.498Z,12.7777777778
2018-07-02T01:33:42.276Z,12.7777777778
2018-07-02T01:33:55.030Z,12.7777777778
2018-07-02T01:34:07.788Z,12.7777777778
2018-07-02T01:34:22.998Z,12.7777777778
2018-07-02T01:34:37.770Z,12.7777777778
2018-07-02T01:34:52.559Z,12.7222222222
2018-07-02T01:35:05.334Z,12.7222222222
2018-07-02T01:35:18.148Z,12.7222222222
2018-07-02T01:35:30.911Z,12.7222222222
2018-07-02T01:35:43.744Z,12.7222222222
2018-07-02T01:35:56.479Z,12.7222222222
2018-07-02T01:36:09.260Z,12.7222222222
2018-07-02T01:36:22.058Z,12.7222222222
2018-07-02T01:36:40.164Z,12.7222222222
2018-07-02T01:36:52.943Z,12.6666666667
2018-07-02T01:37:05.587Z,12.7222222222
2018-07-02T01:37:18.818Z,12.7222222222
2018-07-02T01:37:34.598Z,12.6666666667
2018-07-02T01:37:47.417Z,12.7222222222
2018-07-02T01:38:00.083Z,12.6666666667
2018-07-02T01:38:12.905Z,12.6666666667
2018-07-02T01:38:25.692Z,12.6666666667
2018-07-02T01:38:38.398Z,12.6666666667
2018-07-02T01:38:51.015Z,12.6666666667
2018-07-02T01:39:03.674Z,12.6666666667
2018-07-02T01:39:20.509Z,12.6666666667
2018-07-02T01:39:43.667Z,12.6666666667
2018-07-02T01:39:56.395Z,12.6666666667
2018-07-02T01:40:14.272Z,12.6666666667
2018-07-02T01:40:26.948Z,12.6666666667
2018-07-02T01:40:39.699Z,12.6111111111
2018-07-02T01:40:52.300Z,12.6111111111
2018-07-02T01:41:08.748Z,12.6111111111
2018-07-02T01:41:24.416Z,12.6111111111
2018-07-02T01:41:37.144Z,12.5555555556
2018-07-02T01:41:49.978Z,12.5555555556
2018-07-02T01:42:02.708Z,12.5555555556
2018-07-02T01:42:15.455Z,12.5555555556
2018-07-02T01:42:28.072Z,12.5555555556
2018-07-02T01:42:45.806Z,12.5555555556
2018-07-02T01:42:58.542Z,12.5555555556
2018-07-02T01:43:11.261Z,12.5555555556
2018-07-02T01:43:24.089Z,12.5555555556
2018-07-02T01:43:36.800Z,12.5555555556
2018-07-02T01:43:49.485Z,12.5555555556
2018-07-02T01:44:03.421Z,12.5555555556
2018-07-02T01:44:19.602Z,12.5555555556
2018-07-02T01:44:32.399Z,12.5555555556
2018-07-02T01:44:45.228Z,12.5
2018-07-02T01:44:58.038Z,12.5555555556
2018-07-02T01:45:10.815Z,12.5555555556
2018-07-02T01:45:26.043Z,12.5555555556
2018-07-02T01:45:41.292Z,12.5
2018-07-02T01:45:54.115Z,12.5
2018-07-02T01:46:07.008Z,12.5
2018-07-02T01:46:19.758Z,12.5
2018-07-02T01:46:32.618Z,12.5
2018-07-02T01:46:45.888Z,12.5
2018-07-02T01:47:02.335Z,12.5
2018-07-02T01:47:15.090Z,12.5
2018-07-02T01:47:27.856Z,12.5
2018-07-02T01:47:40.675Z,12.5
2018-07-02T01:47:53.368Z,12.4444444444
2018-07-02T01:48:06.091Z,12.5
2018-07-02T01:48:20.147Z,12.4444444444
2018-07-02T01:48:36.627Z,12.4444444444
2018-07-02T01:48:49.301Z,12.4444444444
2018-07-02T01:49:02.112Z,12.4444444444
2018-07-02T01:49:14.897Z,12.4444444444
2018-07-02T01:49:27.705Z,12.4444444444
2018-07-02T01:49:40.397Z,12.4444444444
2018-07-02T01:49:56.748Z,12.4444444444
2018-07-02T01:50:11.440Z,12.4444444444
2018-07-02T01:50:24.184Z,12.4444444444
2018-07-02T01:50:36.858Z,12.3888888889
2018-07-02T01:50:49.563Z,12.4444444444
2018-07-02T01:51:02.409Z,12.3888888889
2018-07-02T01:51:16.753Z,12.3888888889
2018-07-02T01:51:32.595Z,12.3888888889
2018-07-02T01:51:45.378Z,12.3888888889
2018-07-02T01:51:58.120Z,12.3888888889
2018-07-02T01:52:10.829Z,12.4444444444
2018-07-02T01:52:23.528Z,12.3888888889
2018-07-02T01:52:36.193Z,12.3888888889
2018-07-02T01:52:52.987Z,12.3888888889
2018-07-02T01:53:06.782Z,12.3888888889
2018-07-02T01:53:19.438Z,12.3888888889
2018-07-02T01:53:32.164Z,12.3888888889
2018-07-02T01:53:44.875Z,12.3888888889
2018-07-02T01:53:57.574Z,12.3888888889
2018-07-02T01:54:11.202Z,12.3888888889
2018-07-02T01:54:27.346Z,12.3888888889
2018-07-02T01:54:40.045Z,12.3888888889
2018-07-02T01:54:52.841Z,12.3888888889
2018-07-02T01:55:05.546Z,12.3888888889
2018-07-02T01:55:18.257Z,12.3888888889
2018-07-02T01:55:30.890Z,12.3888888889
2018-07-02T01:55:47.567Z,12.3888888889
2018-07-02T01:56:00.910Z,12.3888888889
2018-07-02T01:56:13.640Z,12.3333333333
2018-07-02T01:56:26.345Z,12.3888888889
2018-07-02T01:56:39.099Z,12.3888888889
2018-07-02T01:56:51.722Z,12.3333333333
2018-07-02T01:57:08.848Z,12.3888888889
2018-07-02T01:57:21.448Z,12.3888888889
2018-07-02T01:57:34.045Z,12.3333333333
2018-07-02T01:57:46.678Z,12.3333333333
2018-07-02T01:57:59.318Z,12.3333333333
2018-07-02T01:58:11.957Z,12.3333333333
2018-07-02T01:58:29.663Z,12.3333333333
2018-07-02T01:58:42.234Z,12.3888888889
2018-07-02T01:58:54.841Z,12.3333333333
2018-07-02T01:59:07.438Z,12.3333333333
2018-07-02T01:59:20.072Z,12.3333333333
2018-07-02T01:59:32.736Z,12.3333333333
2018-07-02T01:59:50.149Z,12.3333333333
2018-07-02T02:00:02.764Z,12.3333333333
2018-07-02T02:00:15.393Z,12.3333333333
2018-07-02T02:00:28.054Z,12.3333333333
2018-07-02T02:00:40.674Z,12.3333333333
2018-07-02T02:00:53.807Z,12.3333333333
2018-07-02T02:01:11.029Z,12.3333333333
2018-07-02T02:01:23.749Z,12.3333333333
2018-07-02T02:01:36.346Z,12.3333333333
2018-07-02T02:01:48.977Z,12.3333333333
2018-07-02T02:02:01.580Z,12.3333333333
2018-07-02T02:02:14.649Z,12.3333333333
2018-07-02T02:02:31.024Z,12.3333333333
2018-07-02T02:02:43.666Z,12.3333333333
2018-07-02T02:02:56.310Z,12.3333333333
2018-07-02T02:03:08.951Z,12.3333333333
2018-07-02T02:03:21.551Z,12.3333333333
2018-07-02T02:03:35.905Z,12.3333333333
2018-07-02T02:03:51.573Z,12.3333333333
2018-07-02T02:04:04.175Z,12.3333333333
2018-07-02T02:04:16.812Z,12.3333333333
2018-07-02T02:04:29.448Z,12.3333333333
2018-07-02T02:04:42.075Z,12.3333333333
2018-07-02T02:04:56.913Z,12.3333333333
2018-07-02T02:05:12.292Z,12.2777777778
2018-07-02T02:05:24.908Z,12.3333333333
2018-07-02T02:05:37.526Z,12.3333333333
2018-07-02T02:05:50.170Z,12.2777777778
2018-07-02T02:06:02.770Z,12.2777777778
2018-07-02T02:06:18.639Z,12.2777777778
2018-07-02T02:06:32.825Z,12.2777777778
2018-07-02T02:06:45.458Z,12.2777777778
2018-07-02T02:06:58.124Z,12.2777777778
2018-07-02T02:07:10.939Z,12.2777777778
2018-07-02T02:07:23.526Z,12.2777777778
2018-07-02T02:07:39.495Z,12.2777777778
2018-07-02T02:07:53.706Z,12.2777777778
2018-07-02T02:08:06.297Z,12.2222222222
2018-07-02T02:08:19.069Z,12.2777777778
2018-07-02T02:08:31.852Z,12.2777777778
2018-07-02T02:08:44.509Z,12.2777777778
2018-07-02T02:09:01.178Z,12.2222222222
2018-07-02T02:09:14.380Z,12.2222222222
2018-07-02T02:09:27.014Z,12.2222222222
2018-07-02T02:09:39.669Z,12.2222222222
2018-07-02T02:09:52.285Z,12.2222222222
2018-07-02T02:10:04.907Z,12.2222222222
2018-07-02T02:10:22.555Z,12.2222222222
2018-07-02T02:10:35.219Z,12.2222222222
2018-07-02T02:10:47.835Z,12.2222222222
2018-07-02T02:11:00.441Z,12.2222222222
2018-07-02T02:11:13.088Z,12.2222222222
2018-07-02T02:11:25.767Z,12.2222222222
2018-07-02T02:11:42.853Z,12.2222222222
2018-07-02T02:11:55.418Z,12.2222222222
2018-07-02T02:12:08.041Z,12.2222222222
2018-07-02T02:12:20.672Z,12.2222222222
2018-07-02T02:12:33.321Z,12.2222222222
2018-07-02T02:12:46.630Z,12.2222222222
2018-07-02T02:13:02.722Z,12.2222222222
2018-07-02T02:13:15.353Z,12.2222222222
2018-07-02T02:13:28.044Z,12.1666666667
2018-07-02T02:13:40.657Z,12.2222222222
2018-07-02T02:13:53.271Z,12.2222222222
2018-07-02T02:14:07.060Z,12.1666666667
2018-07-02T02:14:23.709Z,12.1666666667
2018-07-02T02:14:36.322Z,12.1666666667
2018-07-02T02:14:48.905Z,12.1666666667
2018-07-02T02:15:01.518Z,12.1666666667
2018-07-02T02:15:14.104Z,12.2222222222
2018-07-02T02:15:28.326Z,12.1666666667
2018-07-02T02:15:44.637Z,12.1666666667
2018-07-02T02:15:57.283Z,12.1666666667
2018-07-02T02:16:09.888Z,12.1666666667
2018-07-02T02:16:22.492Z,12.1666666667
2018-07-02T02:16:35.160Z,12.1666666667
2018-07-02T02:16:49.429Z,12.1666666667
2018-07-02T02:17:04.765Z,12.1666666667
2018-07-02T02:17:17.354Z,12.1666666667
2018-07-02T02:17:29.999Z,12.1666666667
2018-07-02T02:17:42.658Z,12.1666666667
2018-07-02T02:17:55.297Z,12.1666666667
2018-07-02T02:18:09.801Z,12.1666666667
2018-07-02T02:18:25.688Z,12.1666666667
2018-07-02T02:18:38.334Z,12.1666666667
2018-07-02T02:18:50.946Z,12.1111111111
2018-07-02T02:19:03.566Z,12.1111111111
2018-07-02T02:19:16.188Z,12.1111111111
2018-07-02T02:19:30.623Z,12.1111111111
2018-07-02T02:19:46.504Z,12.1111111111
2018-07-02T02:19:59.158Z,12.1111111111
2018-07-02T02:20:11.807Z,12.1111111111
2018-07-02T02:20:24.397Z,12.1111111111
2018-07-02T02:20:36.971Z,12.1111111111
2018-07-02T02:20:52.152Z,12.1111111111